Detalii statie SOPEMA [00001CFB]

Toti senzorii

Date Temperatura solului [C]Precipitatii [mm]Voltaj baterie [mV]Leaf Wetness [Min]HC Air temperature [C]HC Relative humidity [%]Punctul de roua [C]
medieminmaxsumaultimatimpmedieminmaxmediemediemin
2020-06-02 07:00:00 0 6776 12.37 12.16 12.63 85.4 9.8 9.5
2020-06-02 08:00:00 0 6796 12.44 12.31 12.62 82.62 9.4 8.9
2020-06-02 09:00:00 0 6962 13.32 12.74 13.91 71.6 8.1 7.4
2020-06-02 10:00:00 0 7050 14.05 13.86 14.21 59 6 5.4
2020-06-02 11:00:00 0 7050 14.21 13.96 14.46 55.86 5.3 4.5
2020-06-02 12:00:00 0 7060 13.23 12.7 13.71 64.94 6.6 5.9
2020-06-02 13:00:00 0 7070 12.38 11.95 12.82 71.4 7.2 6.5
2020-06-02 14:00:00 0 7098 12.08 11.74 12.39 76.48 7.9 7.4
2020-06-02 15:00:00 1.6 7206 11.96 11.58 12.91 91.37 10.4 9.7
2020-06-02 16:00:00 0 7254 13.22 12.5 13.91 84.42 10.5 10
2020-06-02 17:00:00 0 7216 13.94 13.72 14.17 75.52 9.5 8.8
2020-06-02 18:00:00 0 7216 14.2 13.85 14.43 71.39 8.9 8.5
2020-06-02 19:00:00 0 7158 14.6 14.33 14.99 70.81 9.2 8.8
2020-06-02 20:00:00 0 7050 13.82 13.25 14.32 77.89 9.8 9.6
2020-06-02 21:00:00 0 6932 12.08 11.02 13.06 86.48 9.7 9.4
2020-06-02 22:00:00 0 6844 11.07 10.54 11.45 96.74 10.4 9.1
2020-06-02 23:00:00 0 6816 10.75 9.57 11.36 99.73 10.5 9.5
2020-06-03 00:00:00 0 6796 8.75 8.43 9.23 100 8.7 8.4
2020-06-03 01:00:00 0 6786 8.43 7.93 9.09 100 8.3 7.9
2020-06-03 02:00:00 0 6786 7.59 6.63 8.44 100 7.5 6.6
2020-06-03 03:00:00 0.2 6786 7.04 6.43 7.82 100 7 6.4
2020-06-03 04:00:00 0 6786 6.78 6.1 7.32 100 6.7 6.1
2020-06-03 05:00:00 0 6776 7.08 6.39 7.67 100 7 6.3
2020-06-03 06:00:00 0 6756 6.63 6.28 6.97 100 6.5 6.2
2020-06-03 07:00:00 0 6756 8.07 7.18 9.13 100 8 7.1
2020-06-03 08:00:00 0 6786 9.77 9.03 10.75 100 9.7 9
2020-06-03 09:00:00 0 6834 12.63 10.75 14.39 93.27 11.4 10.3
2020-06-03 10:00:00 0 6992 16.77 14.65 18.69 64.09 9.7 8.7
2020-06-03 11:00:00 0 7246 20.2 18.84 21.84 47.43 8.4 6.6
2020-06-03 12:00:00 0 7264 20.78 19.99 21.83 39.91 6.4 5.7
2020-06-03 13:00:00 0 7246 21.68 20.63 22.79 37.73 6.4 5.7
2020-06-03 14:00:00 0 7264 22.79 21.74 23.99 35.53 6.5 5.9
2020-06-03 15:00:00 0 7236 23.77 22.37 25.63 32.66 6.1 5.2
2020-06-03 16:00:00 0 7166 23.94 21.57 26.98 32.11 5.9 5.3
2020-06-03 17:00:00 0 7166 23.15 21.98 25.1 32.63 5.6 4.5
2020-06-03 18:00:00 0 7088 22.77 21.38 24.93 32.06 4.9 4.4
2020-06-03 19:00:00 0 7020 23.12 22.4 24.61 32.97 5.6 4.9
2020-06-03 20:00:00 0 6914 20.78 20.07 22.07 37.16 5.3 4.9
2020-06-03 21:00:00 0 6826 17.42 15.43 19.86 47.01 5.7 4.6
2020-06-03 22:00:00 0 6796 14.16 13.28 16.06 53.91 4.8 4.5
2020-06-03 23:00:00 0 6806 12.38 11.22 13.95 63.93 5.5 5.3
2020-06-04 00:00:00 0 6806 11.2 10.26 11.77 75.49 6.8 5.9
2020-06-04 01:00:00 0 6796 11.07 10.46 11.59 76.33 6.9 6.3
2020-06-04 02:00:00 0 6796 10.72 10.28 11.08 87.47 8.6 7.8
2020-06-04 03:00:00 0 6796 11.75 11.16 12.17 85.28 9.2 9
2020-06-04 04:00:00 0 6786 11.25 10.5 12.02 86.85 9 8.8
2020-06-04 05:00:00 0 6756 9.56 9.16 10.45 93.46 8.4 7.9
2020-06-04 06:00:00 0 6748 8.91 8.73 9.11 98.74 8.6 8.3